sensor_id;sensor_type;location;lat;lon;timestamp;temperature;humidity
40622;DHT22;26324;52.040;11.528;2023-07-09T00:02:10;22.50;50.20
40622;DHT22;26324;52.040;11.528;2023-07-09T00:04:38;22.50;50.70
40622;DHT22;26324;52.040;11.528;2023-07-09T00:07:30;22.50;50.90
40622;DHT22;26324;52.040;11.528;2023-07-09T00:10:00;22.40;51.20
40622;DHT22;26324;52.040;11.528;2023-07-09T00:12:27;22.40;51.30
40622;DHT22;26324;52.040;11.528;2023-07-09T00:14:55;22.30;50.90
40622;DHT22;26324;52.040;11.528;2023-07-09T00:17:31;22.30;52.40
40622;DHT22;26324;52.040;11.528;2023-07-09T00:20:03;22.20;52.20
40622;DHT22;26324;52.040;11.528;2023-07-09T00:22:32;22.10;52.00
40622;DHT22;26324;52.040;11.528;2023-07-09T00:25:00;22.10;52.60
40622;DHT22;26324;52.040;11.528;2023-07-09T00:27:29;22.00;53.80
40622;DHT22;26324;52.040;11.528;2023-07-09T00:29:58;22.00;52.80
40622;DHT22;26324;52.040;11.528;2023-07-09T00:32:26;22.00;53.70
40622;DHT22;26324;52.040;11.528;2023-07-09T00:34:55;22.00;55.20
40622;DHT22;26324;52.040;11.528;2023-07-09T00:37:24;21.90;54.20
40622;DHT22;26324;52.040;11.528;2023-07-09T00:39:55;21.80;55.10
40622;DHT22;26324;52.040;11.528;2023-07-09T00:42:23;21.80;55.20
40622;DHT22;26324;52.040;11.528;2023-07-09T00:44:52;21.80;53.10
40622;DHT22;26324;52.040;11.528;2023-07-09T00:47:24;21.70;55.50
40622;DHT22;26324;52.040;11.528;2023-07-09T00:53:02;21.50;54.80
40622;DHT22;26324;52.040;11.528;2023-07-09T00:55:37;21.40;54.70
40622;DHT22;26324;52.040;11.528;2023-07-09T00:58:08;21.30;54.80
40622;DHT22;26324;52.040;11.528;2023-07-09T01:00:43;21.10;55.30
40622;DHT22;26324;52.040;11.528;2023-07-09T01:03:31;21.10;55.60
40622;DHT22;26324;52.040;11.528;2023-07-09T01:06:00;20.90;56.10
40622;DHT22;26324;52.040;11.528;2023-07-09T01:10:59;20.60;56.90
40622;DHT22;26324;52.040;11.528;2023-07-09T01:13:31;20.50;57.50
40622;DHT22;26324;52.040;11.528;2023-07-09T01:16:04;20.30;58.50
40622;DHT22;26324;52.040;11.528;2023-07-09T01:18:35;20.20;58.60
40622;DHT22;26324;52.040;11.528;2023-07-09T01:21:09;20.10;58.60
40622;DHT22;26324;52.040;11.528;2023-07-09T01:23:49;19.90;58.90
40622;DHT22;26324;52.040;11.528;2023-07-09T01:26:20;19.70;59.60
40622;DHT22;26324;52.040;11.528;2023-07-09T01:28:51;19.60;60.00
40622;DHT22;26324;52.040;11.528;2023-07-09T01:31:24;19.60;60.50
40622;DHT22;26324;52.040;11.528;2023-07-09T01:33:54;19.50;60.80
40622;DHT22;26324;52.040;11.528;2023-07-09T01:36:21;19.40;61.10
40622;DHT22;26324;52.040;11.528;2023-07-09T01:38:55;19.30;61.70
40622;DHT22;26324;52.040;11.528;2023-07-09T01:41:23;19.30;61.70
40622;DHT22;26324;52.040;11.528;2023-07-09T01:43:53;19.20;63.30
40622;DHT22;26324;52.040;11.528;2023-07-09T01:46:22;19.20;62.50
40622;DHT22;26324;52.040;11.528;2023-07-09T01:48:50;19.20;62.30
40622;DHT22;26324;52.040;11.528;2023-07-09T01:51:20;19.10;62.40
40622;DHT22;26324;52.040;11.528;2023-07-09T01:53:49;19.10;62.90
40622;DHT22;26324;52.040;11.528;2023-07-09T01:56:17;19.10;62.70
40622;DHT22;26324;52.040;11.528;2023-07-09T01:58:44;19.10;62.50
40622;DHT22;26324;52.040;11.528;2023-07-09T02:01:12;19.10;62.40
40622;DHT22;26324;52.040;11.528;2023-07-09T02:03:39;19.10;62.30
40622;DHT22;26324;52.040;11.528;2023-07-09T02:06:06;19.10;62.20
40622;DHT22;26324;52.040;11.528;2023-07-09T02:08:37;19.00;62.40
40622;DHT22;26324;52.040;11.528;2023-07-09T02:11:05;18.90;62.50
40622;DHT22;26324;52.040;11.528;2023-07-09T02:13:32;18.70;63.20
40622;DHT22;26324;52.040;11.528;2023-07-09T02:15:59;18.70;63.70
40622;DHT22;26324;52.040;11.528;2023-07-09T02:18:28;18.50;64.10
40622;DHT22;26324;52.040;11.528;2023-07-09T02:20:56;18.50;64.30
40622;DHT22;26324;52.040;11.528;2023-07-09T02:23:27;18.40;64.60
40622;DHT22;26324;52.040;11.528;2023-07-09T02:25:55;18.20;65.10
40622;DHT22;26324;52.040;11.528;2023-07-09T02:28:23;18.20;65.60
40622;DHT22;26324;52.040;11.528;2023-07-09T02:30:50;18.10;66.30
40622;DHT22;26324;52.040;11.528;2023-07-09T02:33:18;18.10;66.40
40622;DHT22;26324;52.040;11.528;2023-07-09T02:35:48;18.20;65.90
40622;DHT22;26324;52.040;11.528;2023-07-09T02:38:16;18.20;65.90
40622;DHT22;26324;52.040;11.528;2023-07-09T02:40:44;18.10;65.90
40622;DHT22;26324;52.040;11.528;2023-07-09T02:43:11;18.00;66.20
40622;DHT22;26324;52.040;11.528;2023-07-09T02:45:39;18.00;66.20
40622;DHT22;26324;52.040;11.528;2023-07-09T02:48:06;18.00;66.30
40622;DHT22;26324;52.040;11.528;2023-07-09T02:50:38;18.10;65.80
40622;DHT22;26324;52.040;11.528;2023-07-09T02:53:06;18.00;66.00
40622;DHT22;26324;52.040;11.528;2023-07-09T02:55:34;17.90;66.20
40622;DHT22;26324;52.040;11.528;2023-07-09T02:58:03;17.80;66.90
40622;DHT22;26324;52.040;11.528;2023-07-09T03:00:30;17.80;67.10
40622;DHT22;26324;52.040;11.528;2023-07-09T03:02:58;17.80;67.20
40622;DHT22;26324;52.040;11.528;2023-07-09T03:05:26;17.70;67.50
40622;DHT22;26324;52.040;11.528;2023-07-09T03:07:54;17.60;67.70
40622;DHT22;26324;52.040;11.528;2023-07-09T03:10:21;17.60;68.10
40622;DHT22;26324;52.040;11.528;2023-07-09T03:12:49;17.60;68.10
40622;DHT22;26324;52.040;11.528;2023-07-09T03:15:16;17.60;68.10
40622;DHT22;26324;52.040;11.528;2023-07-09T03:17:43;17.60;68.10
40622;DHT22;26324;52.040;11.528;2023-07-09T03:20:11;17.60;67.90
40622;DHT22;26324;52.040;11.528;2023-07-09T03:22:40;17.60;67.70
40622;DHT22;26324;52.040;11.528;2023-07-09T03:25:07;17.60;67.70
40622;DHT22;26324;52.040;11.528;2023-07-09T03:27:35;17.50;67.70
40622;DHT22;26324;52.040;11.528;2023-07-09T03:30:02;17.60;67.80
40622;DHT22;26324;52.040;11.528;2023-07-09T03:32:30;17.50;68.00
40622;DHT22;26324;52.040;11.528;2023-07-09T03:34:59;17.50;68.10
40622;DHT22;26324;52.040;11.528;2023-07-09T03:37:26;17.50;68.00
40622;DHT22;26324;52.040;11.528;2023-07-09T03:39:54;17.50;68.00
40622;DHT22;26324;52.040;11.528;2023-07-09T03:42:21;17.50;68.10
40622;DHT22;26324;52.040;11.528;2023-07-09T03:44:48;17.50;68.10
40622;DHT22;26324;52.040;11.528;2023-07-09T03:47:16;17.40;68.70
40622;DHT22;26324;52.040;11.528;2023-07-09T03:49:45;17.40;69.20
40622;DHT22;26324;52.040;11.528;2023-07-09T03:52:12;17.50;69.40
40622;DHT22;26324;52.040;11.528;2023-07-09T03:54:40;17.40;69.80
40622;DHT22;26324;52.040;11.528;2023-07-09T03:57:07;17.50;69.90
40622;DHT22;26324;52.040;11.528;2023-07-09T03:59:35;17.50;70.40
40622;DHT22;26324;52.040;11.528;2023-07-09T04:02:04;17.60;69.70
40622;DHT22;26324;52.040;11.528;2023-07-09T04:04:32;17.70;69.30
40622;DHT22;26324;52.040;11.528;2023-07-09T04:06:59;17.80;68.80
40622;DHT22;26324;52.040;11.528;2023-07-09T04:09:26;17.80;68.80
40622;DHT22;26324;52.040;11.528;2023-07-09T04:11:54;17.90;68.70
40622;DHT22;26324;52.040;11.528;2023-07-09T04:14:21;17.90;68.90
40622;DHT22;26324;52.040;11.528;2023-07-09T04:16:48;17.90;69.20
40622;DHT22;26324;52.040;11.528;2023-07-09T04:19:16;18.00;69.30
40622;DHT22;26324;52.040;11.528;2023-07-09T04:21:43;18.00;69.40
40622;DHT22;26324;52.040;11.528;2023-07-09T04:24:10;18.20;69.20
40622;DHT22;26324;52.040;11.528;2023-07-09T04:26:38;18.20;69.30
40622;DHT22;26324;52.040;11.528;2023-07-09T04:29:06;18.30;69.00
40622;DHT22;26324;52.040;11.528;2023-07-09T04:31:33;18.40;69.50
40622;DHT22;26324;52.040;11.528;2023-07-09T04:34:01;18.50;70.40
40622;DHT22;26324;52.040;11.528;2023-07-09T04:36:28;18.60;69.90
40622;DHT22;26324;52.040;11.528;2023-07-09T04:38:55;18.60;70.10
40622;DHT22;26324;52.040;11.528;2023-07-09T04:41:23;18.80;70.00
40622;DHT22;26324;52.040;11.528;2023-07-09T04:43:50;18.80;69.20
40622;DHT22;26324;52.040;11.528;2023-07-09T04:46:18;19.00;68.90
40622;DHT22;26324;52.040;11.528;2023-07-09T04:48:45;19.10;69.30
40622;DHT22;26324;52.040;11.528;2023-07-09T04:51:12;19.30;69.00
40622;DHT22;26324;52.040;11.528;2023-07-09T04:53:40;19.40;68.90
40622;DHT22;26324;52.040;11.528;2023-07-09T04:56:08;19.50;68.30
40622;DHT22;26324;52.040;11.528;2023-07-09T04:58:36;19.60;68.00
40622;DHT22;26324;52.040;11.528;2023-07-09T05:01:04;19.80;67.70
40622;DHT22;26324;52.040;11.528;2023-07-09T05:03:31;20.00;67.10
40622;DHT22;26324;52.040;11.528;2023-07-09T05:05:59;20.00;66.50
40622;DHT22;26324;52.040;11.528;2023-07-09T05:08:27;20.00;65.90
40622;DHT22;26324;52.040;11.528;2023-07-09T05:10:56;20.10;65.80
40622;DHT22;26324;52.040;11.528;2023-07-09T05:13:24;20.20;65.50
40622;DHT22;26324;52.040;11.528;2023-07-09T05:15:52;20.50;65.20
40622;DHT22;26324;52.040;11.528;2023-07-09T05:18:20;20.60;65.20
40622;DHT22;26324;52.040;11.528;2023-07-09T05:20:47;20.60;64.90
40622;DHT22;26324;52.040;11.528;2023-07-09T05:23:15;20.70;64.80
40622;DHT22;26324;52.040;11.528;2023-07-09T05:25:42;20.90;64.60
40622;DHT22;26324;52.040;11.528;2023-07-09T05:28:10;21.00;64.00
40622;DHT22;26324;52.040;11.528;2023-07-09T05:30:41;21.10;63.20
40622;DHT22;26324;52.040;11.528;2023-07-09T05:33:09;21.20;62.60
40622;DHT22;26324;52.040;11.528;2023-07-09T05:35:36;21.40;62.10
40622;DHT22;26324;52.040;11.528;2023-07-09T05:38:04;21.50;61.30
40622;DHT22;26324;52.040;11.528;2023-07-09T05:40:31;21.50;60.20
40622;DHT22;26324;52.040;11.528;2023-07-09T05:42:58;21.60;60.20
40622;DHT22;26324;52.040;11.528;2023-07-09T05:45:26;21.70;60.20
40622;DHT22;26324;52.040;11.528;2023-07-09T05:47:53;21.80;60.20
40622;DHT22;26324;52.040;11.528;2023-07-09T05:50:21;21.80;60.20
40622;DHT22;26324;52.040;11.528;2023-07-09T05:52:48;21.90;59.00
40622;DHT22;26324;52.040;11.528;2023-07-09T05:55:16;22.10;58.60
40622;DHT22;26324;52.040;11.528;2023-07-09T05:57:44;22.20;58.20
40622;DHT22;26324;52.040;11.528;2023-07-09T06:00:12;22.20;58.00
40622;DHT22;26324;52.040;11.528;2023-07-09T06:02:39;22.30;56.80
40622;DHT22;26324;52.040;11.528;2023-07-09T06:05:07;22.30;57.20
40622;DHT22;26324;52.040;11.528;2023-07-09T06:07:39;22.10;58.10
40622;DHT22;26324;52.040;11.528;2023-07-09T06:10:07;22.30;57.80
40622;DHT22;26324;52.040;11.528;2023-07-09T06:12:35;22.30;57.90
40622;DHT22;26324;52.040;11.528;2023-07-09T06:15:03;22.30;58.10
40622;DHT22;26324;52.040;11.528;2023-07-09T06:17:30;22.30;59.10
40622;DHT22;26324;52.040;11.528;2023-07-09T06:19:59;22.40;58.20
40622;DHT22;26324;52.040;11.528;2023-07-09T06:22:26;22.50;59.40
40622;DHT22;26324;52.040;11.528;2023-07-09T06:24:54;22.70;57.80
40622;DHT22;26324;52.040;11.528;2023-07-09T06:27:21;22.90;59.00
40622;DHT22;26324;52.040;11.528;2023-07-09T06:29:49;22.80;56.80
40622;DHT22;26324;52.040;11.528;2023-07-09T06:32:16;22.90;57.50
40622;DHT22;26324;52.040;11.528;2023-07-09T06:34:44;23.00;56.90
40622;DHT22;26324;52.040;11.528;2023-07-09T06:37:11;23.10;57.00
40622;DHT22;26324;52.040;11.528;2023-07-09T06:39:39;23.30;56.70
40622;DHT22;26324;52.040;11.528;2023-07-09T06:42:07;23.50;56.70
40622;DHT22;26324;52.040;11.528;2023-07-09T06:44:54;23.50;56.20
40622;DHT22;26324;52.040;11.528;2023-07-09T06:47:22;23.70;56.00
40622;DHT22;26324;52.040;11.528;2023-07-09T06:49:49;23.90;55.10
40622;DHT22;26324;52.040;11.528;2023-07-09T06:52:16;23.90;55.20
40622;DHT22;26324;52.040;11.528;2023-07-09T06:54:44;24.00;54.90
40622;DHT22;26324;52.040;11.528;2023-07-09T06:57:11;24.10;54.30
40622;DHT22;26324;52.040;11.528;2023-07-09T06:59:39;24.10;54.70
40622;DHT22;26324;52.040;11.528;2023-07-09T07:02:07;24.10;54.20
40622;DHT22;26324;52.040;11.528;2023-07-09T07:04:35;24.30;54.30
40622;DHT22;26324;52.040;11.528;2023-07-09T07:07:02;24.40;53.90
40622;DHT22;26324;52.040;11.528;2023-07-09T07:09:30;24.40;53.30
40622;DHT22;26324;52.040;11.528;2023-07-09T07:11:57;24.50;53.80
40622;DHT22;26324;52.040;11.528;2023-07-09T07:14:25;24.60;53.90
40622;DHT22;26324;52.040;11.528;2023-07-09T07:16:52;24.60;53.00
40622;DHT22;26324;52.040;11.528;2023-07-09T07:19:20;24.60;53.20
40622;DHT22;26324;52.040;11.528;2023-07-09T07:21:48;24.80;52.40
40622;DHT22;26324;52.040;11.528;2023-07-09T07:24:16;25.00;51.90
40622;DHT22;26324;52.040;11.528;2023-07-09T07:26:43;25.20;52.00
40622;DHT22;26324;52.040;11.528;2023-07-09T07:29:11;25.30;52.90
40622;DHT22;26324;52.040;11.528;2023-07-09T07:31:42;25.40;52.20
40622;DHT22;26324;52.040;11.528;2023-07-09T07:34:11;25.50;52.40
40622;DHT22;26324;52.040;11.528;2023-07-09T07:36:39;25.60;50.90
40622;DHT22;26324;52.040;11.528;2023-07-09T07:39:10;25.50;51.00
40622;DHT22;26324;52.040;11.528;2023-07-09T07:41:39;25.30;50.10
40622;DHT22;26324;52.040;11.528;2023-07-09T07:44:08;25.40;50.80
40622;DHT22;26324;52.040;11.528;2023-07-09T07:46:39;25.40;52.40
40622;DHT22;26324;52.040;11.528;2023-07-09T07:49:08;25.40;52.00
40622;DHT22;26324;52.040;11.528;2023-07-09T07:51:46;25.70;51.30
40622;DHT22;26324;52.040;11.528;2023-07-09T07:54:23;25.90;49.50
40622;DHT22;26324;52.040;11.528;2023-07-09T07:56:57;26.00;51.40
40622;DHT22;26324;52.040;11.528;2023-07-09T07:59:30;26.30;49.90
40622;DHT22;26324;52.040;11.528;2023-07-09T08:02:06;26.40;48.80
40622;DHT22;26324;52.040;11.528;2023-07-09T08:04:38;26.60;49.60
40622;DHT22;26324;52.040;11.528;2023-07-09T08:07:10;26.90;50.30
40622;DHT22;26324;52.040;11.528;2023-07-09T08:09:39;26.80;48.60
40622;DHT22;26324;52.040;11.528;2023-07-09T08:12:06;26.90;49.30
40622;DHT22;26324;52.040;11.528;2023-07-09T08:14:44;26.90;47.70
40622;DHT22;26324;52.040;11.528;2023-07-09T08:17:13;27.10;48.30
40622;DHT22;26324;52.040;11.528;2023-07-09T08:19:52;27.00;49.00
40622;DHT22;26324;52.040;11.528;2023-07-09T08:22:21;27.10;49.40
40622;DHT22;26324;52.040;11.528;2023-07-09T08:24:50;27.40;49.00
40622;DHT22;26324;52.040;11.528;2023-07-09T08:27:21;27.30;48.60
40622;DHT22;26324;52.040;11.528;2023-07-09T08:29:49;27.60;48.70
40622;DHT22;26324;52.040;11.528;2023-07-09T08:32:17;27.80;49.50
40622;DHT22;26324;52.040;11.528;2023-07-09T08:34:44;27.70;49.50
40622;DHT22;26324;52.040;11.528;2023-07-09T08:37:31;27.90;49.00
40622;DHT22;26324;52.040;11.528;2023-07-09T08:39:59;28.00;50.10
40622;DHT22;26324;52.040;11.528;2023-07-09T08:42:33;28.20;45.80
40622;DHT22;26324;52.040;11.528;2023-07-09T08:48:06;28.70;46.60
40622;DHT22;26324;52.040;11.528;2023-07-09T08:50:40;28.90;46.10
40622;DHT22;26324;52.040;11.528;2023-07-09T08:53:51;29.00;45.10
40622;DHT22;26324;52.040;11.528;2023-07-09T08:56:21;28.90;45.40
40622;DHT22;26324;52.040;11.528;2023-07-09T08:58:50;28.70;46.90
40622;DHT22;26324;52.040;11.528;2023-07-09T09:01:24;28.80;48.10
40622;DHT22;26324;52.040;11.528;2023-07-09T09:04:00;28.90;46.70
40622;DHT22;26324;52.040;11.528;2023-07-09T09:06:31;29.20;46.60
40622;DHT22;26324;52.040;11.528;2023-07-09T09:09:14;29.50;45.30
40622;DHT22;26324;52.040;11.528;2023-07-09T09:14:31;29.70;46.40
40622;DHT22;26324;52.040;11.528;2023-07-09T09:17:02;30.00;45.50
40622;DHT22;26324;52.040;11.528;2023-07-09T09:19:37;30.10;44.50
40622;DHT22;26324;52.040;11.528;2023-07-09T09:22:09;30.10;43.70
40622;DHT22;26324;52.040;11.528;2023-07-09T09:27:20;30.60;44.70
40622;DHT22;26324;52.040;11.528;2023-07-09T09:29:47;30.70;44.00
40622;DHT22;26324;52.040;11.528;2023-07-09T09:32:30;30.90;45.70
40622;DHT22;26324;52.040;11.528;2023-07-09T09:34:58;30.90;41.70
40622;DHT22;26324;52.040;11.528;2023-07-09T09:37:29;30.60;42.70
40622;DHT22;26324;52.040;11.528;2023-07-09T09:39:58;30.40;42.20
40622;DHT22;26324;52.040;11.528;2023-07-09T09:42:44;30.20;42.90
40622;DHT22;26324;52.040;11.528;2023-07-09T09:45:15;30.20;44.90
40622;DHT22;26324;52.040;11.528;2023-07-09T09:47:44;30.40;42.50
40622;DHT22;26324;52.040;11.528;2023-07-09T09:50:20;30.80;41.40
40622;DHT22;26324;52.040;11.528;2023-07-09T09:52:48;31.00;42.10
40622;DHT22;26324;52.040;11.528;2023-07-09T09:55:26;31.10;42.20
40622;DHT22;26324;52.040;11.528;2023-07-09T09:57:55;31.00;41.30
40622;DHT22;26324;52.040;11.528;2023-07-09T10:00:26;31.10;40.50
40622;DHT22;26324;52.040;11.528;2023-07-09T10:03:03;31.30;40.40
40622;DHT22;26324;52.040;11.528;2023-07-09T10:05:40;31.40;38.40
40622;DHT22;26324;52.040;11.528;2023-07-09T10:11:04;31.70;39.70
40622;DHT22;26324;52.040;11.528;2023-07-09T10:13:36;31.60;41.20
40622;DHT22;26324;52.040;11.528;2023-07-09T10:16:10;31.70;38.30
40622;DHT22;26324;52.040;11.528;2023-07-09T10:18:53;31.80;39.00
40622;DHT22;26324;52.040;11.528;2023-07-09T10:21:32;32.00;40.90
40622;DHT22;26324;52.040;11.528;2023-07-09T10:32:14;32.70;35.20
40622;DHT22;26324;52.040;11.528;2023-07-09T10:34:56;32.90;38.40
40622;DHT22;26324;52.040;11.528;2023-07-09T10:37:46;32.90;34.50
40622;DHT22;26324;52.040;11.528;2023-07-09T10:40:24;33.00;37.10
40622;DHT22;26324;52.040;11.528;2023-07-09T10:42:55;33.10;39.00
40622;DHT22;26324;52.040;11.528;2023-07-09T10:45:30;33.10;36.40
40622;DHT22;26324;52.040;11.528;2023-07-09T10:51:27;33.20;34.60
40622;DHT22;26324;52.040;11.528;2023-07-09T10:53:58;33.30;33.80
40622;DHT22;26324;52.040;11.528;2023-07-09T10:56:29;33.60;34.70
40622;DHT22;26324;52.040;11.528;2023-07-09T10:59:22;33.70;31.60
40622;DHT22;26324;52.040;11.528;2023-07-09T11:02:18;33.80;30.80
40622;DHT22;26324;52.040;11.528;2023-07-09T11:04:53;33.80;28.00
40622;DHT22;26324;52.040;11.528;2023-07-09T11:10:04;34.20;29.50
40622;DHT22;26324;52.040;11.528;2023-07-09T11:12:41;34.30;29.90
40622;DHT22;26324;52.040;11.528;2023-07-09T11:15:16;34.60;31.70
40622;DHT22;26324;52.040;11.528;2023-07-09T11:17:46;34.80;31.50
40622;DHT22;26324;52.040;11.528;2023-07-09T11:22:53;35.20;31.00
40622;DHT22;26324;52.040;11.528;2023-07-09T11:25:31;35.10;29.30
40622;DHT22;26324;52.040;11.528;2023-07-09T11:28:04;35.00;27.80
40622;DHT22;26324;52.040;11.528;2023-07-09T11:30:32;34.90;28.80
40622;DHT22;26324;52.040;11.528;2023-07-09T11:33:04;35.10;29.50
40622;DHT22;26324;52.040;11.528;2023-07-09T11:35:53;35.30;31.10
40622;DHT22;26324;52.040;11.528;2023-07-09T11:38:24;35.10;29.20
40622;DHT22;26324;52.040;11.528;2023-07-09T11:40:54;35.10;29.40
40622;DHT22;26324;52.040;11.528;2023-07-09T11:43:35;35.00;27.90
40622;DHT22;26324;52.040;11.528;2023-07-09T11:46:23;35.00;28.10
40622;DHT22;26324;52.040;11.528;2023-07-09T11:48:55;35.00;29.50
40622;DHT22;26324;52.040;11.528;2023-07-09T11:51:38;35.20;33.30
40622;DHT22;26324;52.040;11.528;2023-07-09T11:54:11;35.40;29.30
40622;DHT22;26324;52.040;11.528;2023-07-09T11:56:40;35.40;28.30
40622;DHT22;26324;52.040;11.528;2023-07-09T11:59:11;35.50;27.00
40622;DHT22;26324;52.040;11.528;2023-07-09T12:01:44;35.60;30.20
40622;DHT22;26324;52.040;11.528;2023-07-09T12:04:13;35.90;30.60
40622;DHT22;26324;52.040;11.528;2023-07-09T12:06:41;36.10;29.20
40622;DHT22;26324;52.040;11.528;2023-07-09T12:09:18;36.00;28.60
40622;DHT22;26324;52.040;11.528;2023-07-09T12:11:48;36.20;30.60
40622;DHT22;26324;52.040;11.528;2023-07-09T12:14:20;36.30;29.30
40622;DHT22;26324;52.040;11.528;2023-07-09T12:16:50;36.30;27.70
40622;DHT22;26324;52.040;11.528;2023-07-09T12:19:20;36.40;26.60
40622;DHT22;26324;52.040;11.528;2023-07-09T12:21:57;36.70;29.60
40622;DHT22;26324;52.040;11.528;2023-07-09T12:24:30;36.50;27.30
40622;DHT22;26324;52.040;11.528;2023-07-09T12:27:02;36.60;27.00
40622;DHT22;26324;52.040;11.528;2023-07-09T12:29:35;36.60;26.80
40622;DHT22;26324;52.040;11.528;2023-07-09T12:32:11;36.70;30.90
40622;DHT22;26324;52.040;11.528;2023-07-09T12:34:39;36.80;30.20
40622;DHT22;26324;52.040;11.528;2023-07-09T12:37:12;37.00;27.90
40622;DHT22;26324;52.040;11.528;2023-07-09T12:39:40;37.30;29.30
40622;DHT22;26324;52.040;11.528;2023-07-09T12:42:28;37.20;23.40
40622;DHT22;26324;52.040;11.528;2023-07-09T12:44:56;37.20;26.30
40622;DHT22;26324;52.040;11.528;2023-07-09T12:47:24;37.20;27.70
40622;DHT22;26324;52.040;11.528;2023-07-09T12:50:01;37.30;26.30
40622;DHT22;26324;52.040;11.528;2023-07-09T12:52:29;37.50;28.10
40622;DHT22;26324;52.040;11.528;2023-07-09T12:55:03;37.70;26.50
40622;DHT22;26324;52.040;11.528;2023-07-09T12:57:30;37.80;29.00
40622;DHT22;26324;52.040;11.528;2023-07-09T12:59:58;37.70;26.20
40622;DHT22;26324;52.040;11.528;2023-07-09T13:02:28;37.50;25.90
40622;DHT22;26324;52.040;11.528;2023-07-09T13:05:05;37.50;25.80
40622;DHT22;26324;52.040;11.528;2023-07-09T13:07:37;37.60;23.50
40622;DHT22;26324;52.040;11.528;2023-07-09T13:10:17;37.70;27.00
40622;DHT22;26324;52.040;11.528;2023-07-09T13:12:53;37.70;26.80
40622;DHT22;26324;52.040;11.528;2023-07-09T13:15:26;37.70;26.30
40622;DHT22;26324;52.040;11.528;2023-07-09T13:17:58;37.90;26.00
40622;DHT22;26324;52.040;11.528;2023-07-09T13:20:27;37.80;25.80
40622;DHT22;26324;52.040;11.528;2023-07-09T13:22:55;38.10;27.20
40622;DHT22;26324;52.040;11.528;2023-07-09T13:25:23;38.40;26.30
40622;DHT22;26324;52.040;11.528;2023-07-09T13:28:15;38.80;26.40
40622;DHT22;26324;52.040;11.528;2023-07-09T13:30:42;39.40;26.10
40622;DHT22;26324;52.040;11.528;2023-07-09T13:33:10;39.80;26.60
40622;DHT22;26324;52.040;11.528;2023-07-09T13:35:38;40.20;24.10
40622;DHT22;26324;52.040;11.528;2023-07-09T13:38:13;40.70;23.50
40622;DHT22;26324;52.040;11.528;2023-07-09T13:40:42;41.10;21.70
40622;DHT22;26324;52.040;11.528;2023-07-09T13:43:17;41.40;23.80
40622;DHT22;26324;52.040;11.528;2023-07-09T13:45:46;41.90;22.10
40622;DHT22;26324;52.040;11.528;2023-07-09T13:48:17;42.10;20.90
40622;DHT22;26324;52.040;11.528;2023-07-09T13:50:47;42.40;22.30
40622;DHT22;26324;52.040;11.528;2023-07-09T13:53:19;42.70;21.70
40622;DHT22;26324;52.040;11.528;2023-07-09T13:55:47;43.10;21.10
40622;DHT22;26324;52.040;11.528;2023-07-09T13:58:16;43.50;21.70
40622;DHT22;26324;52.040;11.528;2023-07-09T14:00:45;43.80;21.80
40622;DHT22;26324;52.040;11.528;2023-07-09T14:03:21;44.00;20.70
40622;DHT22;26324;52.040;11.528;2023-07-09T14:05:50;44.00;21.20
40622;DHT22;26324;52.040;11.528;2023-07-09T14:08:19;44.30;20.00
40622;DHT22;26324;52.040;11.528;2023-07-09T14:10:48;44.40;18.70
40622;DHT22;26324;52.040;11.528;2023-07-09T14:13:19;44.50;17.60
40622;DHT22;26324;52.040;11.528;2023-07-09T14:15:47;44.70;17.40
40622;DHT22;26324;52.040;11.528;2023-07-09T14:18:21;44.70;18.20
40622;DHT22;26324;52.040;11.528;2023-07-09T14:20:50;45.00;19.50
40622;DHT22;26324;52.040;11.528;2023-07-09T14:23:18;45.20;21.30
40622;DHT22;26324;52.040;11.528;2023-07-09T14:25:46;45.50;17.90
40622;DHT22;26324;52.040;11.528;2023-07-09T14:28:19;45.60;19.70
40622;DHT22;26324;52.040;11.528;2023-07-09T14:30:48;45.50;18.50
40622;DHT22;26324;52.040;11.528;2023-07-09T14:33:18;45.60;20.10
40622;DHT22;26324;52.040;11.528;2023-07-09T14:35:47;45.70;19.30
40622;DHT22;26324;52.040;11.528;2023-07-09T14:38:18;45.90;19.90
40622;DHT22;26324;52.040;11.528;2023-07-09T14:40:47;46.00;17.80
40622;DHT22;26324;52.040;11.528;2023-07-09T14:43:14;46.10;18.10
40622;DHT22;26324;52.040;11.528;2023-07-09T14:45:42;46.20;17.70
40622;DHT22;26324;52.040;11.528;2023-07-09T14:48:14;46.30;17.30
40622;DHT22;26324;52.040;11.528;2023-07-09T14:50:42;46.10;18.50
40622;DHT22;26324;52.040;11.528;2023-07-09T14:53:19;46.10;18.00
40622;DHT22;26324;52.040;11.528;2023-07-09T14:55:47;46.10;19.00
40622;DHT22;26324;52.040;11.528;2023-07-09T14:58:17;46.00;18.20
40622;DHT22;26324;52.040;11.528;2023-07-09T15:00:45;46.00;17.40
40622;DHT22;26324;52.040;11.528;2023-07-09T15:03:25;46.00;18.00
40622;DHT22;26324;52.040;11.528;2023-07-09T15:05:53;46.10;17.00
40622;DHT22;26324;52.040;11.528;2023-07-09T15:08:25;46.20;19.50
40622;DHT22;26324;52.040;11.528;2023-07-09T15:10:54;46.10;18.40
40622;DHT22;26324;52.040;11.528;2023-07-09T15:13:27;46.00;18.90
40622;DHT22;26324;52.040;11.528;2023-07-09T15:15:55;45.60;19.30
40622;DHT22;26324;52.040;11.528;2023-07-09T15:18:22;45.50;18.00
40622;DHT22;26324;52.040;11.528;2023-07-09T15:20:51;45.60;18.10
40622;DHT22;26324;52.040;11.528;2023-07-09T15:23:20;45.70;18.90
40622;DHT22;26324;52.040;11.528;2023-07-09T15:25:50;45.60;17.80
40622;DHT22;26324;52.040;11.528;2023-07-09T15:28:18;45.80;17.50
40622;DHT22;26324;52.040;11.528;2023-07-09T15:30:46;46.10;18.00
40622;DHT22;26324;52.040;11.528;2023-07-09T15:33:16;46.30;17.70
40622;DHT22;26324;52.040;11.528;2023-07-09T15:35:46;46.50;16.90
40622;DHT22;26324;52.040;11.528;2023-07-09T15:38:25;46.70;17.30
40622;DHT22;26324;52.040;11.528;2023-07-09T15:40:54;47.00;19.80
40622;DHT22;26324;52.040;11.528;2023-07-09T15:43:22;47.00;16.80
40622;DHT22;26324;52.040;11.528;2023-07-09T15:45:51;47.20;16.50
40622;DHT22;26324;52.040;11.528;2023-07-09T15:48:26;47.30;19.00
40622;DHT22;26324;52.040;11.528;2023-07-09T15:50:54;47.40;19.90
40622;DHT22;26324;52.040;11.528;2023-07-09T15:53:21;47.40;17.70
40622;DHT22;26324;52.040;11.528;2023-07-09T15:55:49;47.40;17.60
40622;DHT22;26324;52.040;11.528;2023-07-09T15:58:27;47.40;17.20
40622;DHT22;26324;52.040;11.528;2023-07-09T16:00:55;47.50;16.50
40622;DHT22;26324;52.040;11.528;2023-07-09T16:03:22;47.50;17.00
40622;DHT22;26324;52.040;11.528;2023-07-09T16:05:50;47.50;18.20
40622;DHT22;26324;52.040;11.528;2023-07-09T16:08:17;47.30;17.50
40622;DHT22;26324;52.040;11.528;2023-07-09T16:10:45;47.10;17.20